Flight Track Log - Related Links

Times and Time Zones

All times are in EDT time to prevent confusion due to time zone crossing. See the ASQ2536 flight status page for this flight to view local times or setup timezone preferences in your user account.

Time Position Orientation Groundspeed Altitude Reporting Facility
EDT Latitude Longitude Course Direction KTS MPH feet Rate Location/Type
Wed 08:37:50 AM 29.9569 -94.0314 295° West 154 177 500  Level Houston Center
Wed 08:39:03 AM 29.9819 -94.0933 295° West 198 228 3,000 2,241 Climbing Houston Center
Wed 08:39:13 AM 29.9889 -94.1058 303° West 192 221 3,600 1,859 Climbing Houston Center
Wed 08:40:14 AM 30.0472 -94.1272 342° North 239 275 5,200 2,195 Climbing Houston Center
Wed 08:41:16 AM 30.1236 -94.1264 North 270 311 8,100 2,516 Climbing Houston Center
Wed 08:42:18 AM 30.1997 -94.1056 13° North 278 320 10,400 1,366 Climbing Houston Center
Wed 08:43:19 AM 30.2883 -94.0814 13° North 321 369 10,900 732 Climbing Houston Center
Wed 08:44:21 AM 30.3908 -94.0550 13° North 367 422 11,900 1,113 Climbing Houston Center
Wed 08:45:23 AM 30.4972 -94.0242 14° North 383 441 13,200 1,268 Climbing Houston Center
Wed 08:46:24 AM 30.5853 -94.0789 332° Northwest 374 430 14,500 1,220 Climbing Houston Center
Wed 08:47:26 AM 30.6539 -94.1653 313° West 362 417 15,700 1,258 Climbing Houston Center
Wed 08:48:28 AM 30.7361 -94.2725 312° West 370 426 17,100 1,171 Climbing Houston Center
Wed 08:49:29 AM 30.8053 -94.3642 311° West 374 430 18,100 976 Climbing Houston Center
Wed 08:50:31 AM 30.8744 -94.4544 312° West 374 430 19,100 968 Climbing Houston Center
Wed 08:51:33 AM 30.9428 -94.5433 312° West 373 429 20,100 968 Climbing Houston Center
Wed 08:52:35 AM 31.0100 -94.6317 312° West 367 422 21,100 726 Climbing Houston Center
Wed 08:53:37 AM 31.0767 -94.7214 311° West 366 421 21,600 537 Climbing Houston Center
Wed 08:54:38 AM 31.1481 -94.8156 312° West 373 429 22,200 537 Climbing Houston Center
Wed 08:55:40 AM 31.2219 -94.9100 312° West 378 435 22,700 484 Climbing Houston Center
Wed 08:56:42 AM 31.2947 -95.0042 312° West 383 441 23,200 484 Climbing Houston Center
Wed 08:57:44 AM 31.3672 -95.0978 312° West 385 443 23,700 390 Climbing Houston Center
Wed 08:58:45 AM 31.4544 -95.2131 312° West 389 448 24,000 146 Climbing Houston Center
Wed 08:59:47 AM 31.5286 -95.3108 312° West 395 455 24,000  Level Houston Center
Wed 09:00:49 AM 31.6036 -95.4106 311° West 404 465 24,000  Level Houston Center
Wed 09:01:38 AM 31.6675 -95.4925 313° West 409 471 24,000  Level Fort Worth Center
Wed 09:02:40 AM 31.7431 -95.5922 312° West 412 474 24,000  Level Fort Worth Center
Wed 09:03:42 AM 31.8197 -95.6947 311° West 414 476 24,000  Level Fort Worth Center
Wed 09:04:44 AM 31.8969 -95.7953 312° West 414 476 24,000 -726 Level Fort Worth Center
Wed 09:05:46 AM 31.9778 -95.9036 311° West 414 476 22,500 -1,790 Descending Fort Worth Center
Wed 09:06:48 AM 32.0475 -95.9967 311° West 383 441 20,300 -2,146 Descending Fort Worth Center
Wed 09:07:49 AM 32.1147 -96.0856 312° West 367 422 18,100 -2,244 Descending Fort Worth Center
Wed 09:08:51 AM 32.1975 -96.1964 311° West 373 429 15,700 -2,274 Descending Fort Worth Center
Wed 09:09:53 AM 32.2658 -96.2897 311° West 366 421 13,400 -2,146 Descending Fort Worth Center
Wed 09:10:54 AM 32.3261 -96.3736 310° West 333 383 11,300 -1,171 Descending Fort Worth Center
Wed 09:11:56 AM 32.3772 -96.4414 312° West 254 292 11,000 -532 Descending Fort Worth Center
Wed 09:12:58 AM 32.4264 -96.5008 314° West 251 289 10,200 -871 Descending Fort Worth Center
Wed 09:14:00 AM 32.4739 -96.5597 314° West 250 288 9,200 -1,016 Descending Fort Worth Center
Wed 09:15:02 AM 32.4961 -96.6442 287° West 251 289 8,100 -1,512 Descending Fort Worth Center
Wed 09:16:03 AM 32.5264 -96.7192 296° West 254 292 6,100 -1,512 Descending Fort Worth Center
Wed 09:17:05 AM 32.5511 -96.7961 291° West 252 290 5,000 -532 Descending Fort Worth Center
Wed 09:18:07 AM 32.5994 -96.8597 312° West 244 281 5,000 -339 Level Fort Worth Center
Wed 09:19:09 AM 32.6478 -96.9100 319° Northwest 236 272 4,300 -968 Descending Fort Worth Center
Wed 09:20:11 AM 32.7039 -96.9519 328° Northwest 222 255 3,000 -919 Descending Fort Worth Center
Wed 09:21:13 AM 32.7433 -96.9797 329° Northwest 174 200 2,400 -390 Descending Fort Worth Center
Wed 09:22:14 AM 32.7808 -97.0047 331° Northwest 158 182 2,200 -375 Descending Fort Worth Center
Wed 09:23:21 AM 32.8167 -97.0000 North 121 139 1,600 -600 Descending Dallas / Fort Worth TRACON
Wed 09:24:34 AM 32.8667 -97.0000 360° North 121 139 800 -658 Descending Dallas / Fort Worth TRACON
Wed 09:27:00 AM 32.8833 -97.0333 308° West  Level FlightAware Approximate
Wed 09:34:00 AM 32.8968 -97.0380 308° West  Level Estimated

Login

Don't have an account? Register now (free) for customized features, flight alerts, and more!